createdAt,value
2019-01-06T00:02:12.930Z,11.7
2019-01-06T00:07:21.487Z,11.7
2019-01-06T00:12:30.136Z,11.7
2019-01-06T00:17:38.692Z,11.7
2019-01-06T00:22:47.127Z,11.7
2019-01-06T00:27:55.751Z,11.7
2019-01-06T00:33:04.228Z,11.7
2019-01-06T00:38:12.723Z,11.7
2019-01-06T00:43:21.233Z,11.7
2019-01-06T00:48:29.795Z,11.6
2019-01-06T00:53:38.347Z,11.6
2019-01-06T00:58:46.909Z,11.6
2019-01-06T01:03:55.438Z,11.6
2019-01-06T01:09:03.984Z,11.5
2019-01-06T01:14:12.604Z,11.6
2019-01-06T01:24:29.758Z,11.6
2019-01-06T01:29:38.213Z,11.6
2019-01-06T01:34:46.819Z,11.6
2019-01-06T01:39:55.307Z,11.5
2019-01-06T01:45:03.899Z,11.5
2019-01-06T01:50:12.383Z,11.6
2019-01-06T02:00:29.479Z,11.5
2019-01-06T02:10:46.626Z,11.5
2019-01-06T02:15:55.117Z,11.5
2019-01-06T02:21:03.657Z,11.5
2019-01-06T02:26:12.191Z,11.4
2019-01-06T02:31:20.823Z,11.5
2019-01-06T02:36:29.304Z,11.5
2019-01-06T02:41:37.835Z,11.4
2019-01-06T02:46:46.378Z,11.5
2019-01-06T02:51:54.945Z,11.5
2019-01-06T02:57:03.586Z,11.6
2019-01-06T03:07:20.712Z,11.6
2019-01-06T03:12:29.176Z,11.6
2019-01-06T03:17:37.727Z,11.5
2019-01-06T03:22:46.386Z,11.6
2019-01-06T03:27:54.845Z,11.6
2019-01-06T03:33:03.521Z,11.6
2019-01-06T03:38:12.005Z,11.6
2019-01-06T03:43:20.617Z,11.5
2019-01-06T03:48:29.117Z,11.5
2019-01-06T03:53:37.776Z,11.5
2019-01-06T03:58:46.253Z,11.5
2019-01-06T04:03:54.875Z,11.5
2019-01-06T04:09:03.298Z,11.5
2019-01-06T04:14:11.853Z,11.5
2019-01-06T04:19:20.436Z,11.5
2019-01-06T04:24:28.945Z,11.5
2019-01-06T04:29:37.573Z,11.5
2019-01-06T04:34:46.126Z,11.5
2019-01-06T04:39:54.748Z,11.5
2019-01-06T04:50:11.790Z,11.5
2019-01-06T04:55:20.426Z,11.4
2019-01-06T05:00:28.950Z,11.4
2019-01-06T05:05:37.530Z,11.4
2019-01-06T05:10:46.143Z,11.4
2019-01-06T05:15:54.679Z,11.4
2019-01-06T05:21:03.262Z,11.4
2019-01-06T05:26:12.024Z,11.4
2019-01-06T05:31:20.411Z,11.4
2019-01-06T05:36:28.953Z,11.3
2019-01-06T05:41:37.514Z,11.4
2019-01-06T05:46:46.141Z,11.4
2019-01-06T05:51:54.627Z,11.3
2019-01-06T05:57:03.203Z,11.3
2019-01-06T06:02:11.768Z,11.3
2019-01-06T06:07:20.322Z,11.3
2019-01-06T06:17:37.390Z,11.2
2019-01-06T06:22:45.954Z,11.3
2019-01-06T06:33:03.196Z,11.3
2019-01-06T06:38:11.672Z,11.3
2019-01-06T06:43:20.284Z,11.3
2019-01-06T06:48:28.919Z,11.4
2019-01-06T06:53:37.528Z,11.3
2019-01-06T06:58:46.002Z,11.3
2019-01-06T07:03:54.591Z,11.3
2019-01-06T07:09:03.168Z,11.2
2019-01-06T07:14:11.810Z,11.2
2019-01-06T07:19:20.374Z,11.4
2019-01-06T07:24:28.906Z,11.5
2019-01-06T07:29:37.450Z,11.4
2019-01-06T07:34:45.943Z,11.5
2019-01-06T07:39:54.461Z,11.5
2019-01-06T07:45:03.002Z,11.6
2019-01-06T07:50:11.550Z,11.7
2019-01-06T07:55:20.105Z,11.7
2019-01-06T08:00:28.629Z,11.8
2019-01-06T08:05:37.166Z,11.8
2019-01-06T08:26:11.327Z,12.2
2019-01-06T08:36:28.257Z,12.2
2019-01-06T08:41:36.761Z,12.3
2019-01-06T08:46:45.260Z,12.4
2019-01-06T08:51:53.759Z,12.5
2019-01-06T08:57:02.355Z,12.5
2019-01-06T09:02:10.835Z,12.7
2019-01-06T09:07:19.249Z,12.7
2019-01-06T09:12:27.803Z,12.7
2019-01-06T09:17:36.245Z,12.8
2019-01-06T09:27:53.127Z,13
2019-01-06T09:33:01.606Z,13
2019-01-06T09:43:18.655Z,13
2019-01-06T09:48:27.044Z,13.1
2019-01-06T09:58:44.032Z,13.2
2019-01-06T10:09:00.937Z,13.3
2019-01-06T10:14:09.309Z,13.2
2019-01-06T10:19:17.789Z,13.3
2019-01-06T10:24:26.274Z,13.4
2019-01-06T10:29:34.726Z,13.5
2019-01-06T10:34:43.280Z,13.5
2019-01-06T10:39:54.850Z,13.5
2019-01-06T10:45:00.209Z,13.7
2019-01-06T10:50:08.633Z,13.8
2019-01-06T10:55:17.055Z,13.8
2019-01-06T11:00:25.323Z,13.9
2019-01-06T11:05:33.768Z,13.9
2019-01-06T11:10:42.244Z,13.9
2019-01-06T11:15:50.549Z,14
2019-01-06T11:20:58.964Z,14
2019-01-06T11:26:07.291Z,14.1
2019-01-06T11:31:15.654Z,14.1
2019-01-06T11:41:32.432Z,14.1
2019-01-06T11:46:40.755Z,14.2
2019-01-06T11:51:49.106Z,14.2
2019-01-06T11:56:57.465Z,14.3
2019-01-06T12:02:05.801Z,14.3
2019-01-06T12:07:14.147Z,14.4
2019-01-06T12:12:22.526Z,14.5
2019-01-06T12:17:30.792Z,14.6
2019-01-06T12:27:47.523Z,14.7
2019-01-06T12:32:55.782Z,14.7
2019-01-06T12:38:04.241Z,14.9
2019-01-06T12:43:12.429Z,14.9
2019-01-06T12:48:20.826Z,15
2019-01-06T12:58:37.357Z,15.1
2019-01-06T13:08:54.047Z,15.3
2019-01-06T13:14:02.334Z,15.3
2019-01-06T13:24:19.005Z,15.4
2019-01-06T13:29:27.207Z,15.6
2019-01-06T13:34:35.546Z,15.8
2019-01-06T13:39:43.722Z,15.8
2019-01-06T13:44:52.087Z,15.7
2019-01-06T13:50:00.322Z,15.8
2019-01-06T13:55:08.573Z,15.7
2019-01-06T14:00:16.955Z,15.8
2019-01-06T14:05:25.223Z,15.7
2019-01-06T14:10:33.455Z,15.7
2019-01-06T14:20:50.072Z,15.7
2019-01-06T14:31:06.578Z,15.7
2019-01-06T14:36:14.928Z,15.7
2019-01-06T14:41:23.096Z,15.6
2019-01-06T14:46:31.525Z,15.4
2019-01-06T14:51:39.684Z,15.3
2019-01-06T15:07:04.576Z,15.3
2019-01-06T15:17:21.297Z,15.1
2019-01-06T15:27:37.861Z,15.1
2019-01-06T15:37:54.579Z,14.8
2019-01-06T15:43:02.910Z,14.8
2019-01-06T15:48:13.871Z,14.7
2019-01-06T15:53:19.644Z,14.7
2019-01-06T15:58:27.969Z,14.5
2019-01-06T16:03:36.384Z,14.5
2019-01-06T16:08:44.675Z,14.4
2019-01-06T16:19:01.496Z,14.3
2019-01-06T16:24:09.870Z,14.2
2019-01-06T16:34:26.531Z,14.1
2019-01-06T16:39:34.948Z,14
2019-01-06T16:49:51.768Z,13.9
2019-01-06T16:55:00.069Z,13.9
2019-01-06T17:00:08.521Z,13.8
2019-01-06T17:15:33.576Z,13.5
2019-01-06T17:20:41.974Z,13.6
2019-01-06T17:25:50.467Z,13.4
2019-01-06T17:30:58.848Z,13.4
2019-01-06T17:36:07.212Z,13.3
2019-01-06T17:41:15.577Z,13.2
2019-01-06T17:46:24.034Z,13.1
2019-01-06T17:51:32.507Z,13.1
2019-01-06T17:56:40.923Z,13
2019-01-06T18:06:57.865Z,13
2019-01-06T18:12:06.287Z,12.9
2019-01-06T18:17:14.719Z,12.9
2019-01-06T18:22:23.269Z,12.9
2019-01-06T18:37:48.659Z,12.8
2019-01-06T18:42:57.192Z,12.7
2019-01-06T18:53:14.113Z,12.7
2019-01-06T18:58:22.790Z,12.5
2019-01-06T19:03:31.207Z,12.6
2019-01-06T19:08:39.683Z,12.5
2019-01-06T19:13:48.197Z,12.4
2019-01-06T19:18:56.659Z,12.4
2019-01-06T19:24:05.115Z,12.3
2019-01-06T19:29:13.694Z,12.2
2019-01-06T19:34:22.271Z,12.2
2019-01-06T19:39:30.733Z,12.2
2019-01-06T19:44:39.244Z,12.1
2019-01-06T19:49:47.702Z,12
2019-01-06T19:54:56.253Z,12.1
2019-01-06T20:00:04.882Z,12
2019-01-06T20:05:13.369Z,12
2019-01-06T20:15:30.586Z,11.9
2019-01-06T20:20:39.072Z,11.8
2019-01-06T20:46:21.889Z,11.7
2019-01-06T20:51:30.532Z,11.5
2019-01-06T21:01:47.688Z,11.5
2019-01-06T21:06:56.170Z,11.5
2019-01-06T21:12:04.735Z,11.4
2019-01-06T21:17:13.406Z,11.4
2019-01-06T21:27:30.538Z,11.4
2019-01-06T21:32:39.100Z,11.3
2019-01-06T21:37:47.712Z,11.3
2019-01-06T21:42:56.322Z,11.3
2019-01-06T21:58:22.183Z,11.2
2019-01-06T22:03:30.672Z,11.1
2019-01-06T22:08:39.199Z,11.2
2019-01-06T22:13:47.799Z,11.1
2019-01-06T22:18:56.393Z,11.1
2019-01-06T22:29:13.641Z,11
2019-01-06T22:34:22.309Z,11.1
2019-01-06T22:39:30.928Z,11.1
2019-01-06T22:44:39.427Z,11.2
2019-01-06T22:49:48.043Z,11.1
2019-01-06T22:54:56.583Z,11.1
2019-01-06T23:05:13.836Z,11.1
2019-01-06T23:10:22.484Z,11.1
2019-01-06T23:15:31.024Z,11
2019-01-06T23:20:39.628Z,11.1
2019-01-06T23:25:48.309Z,10.9
2019-01-06T23:30:56.878Z,10.9
2019-01-06T23:41:14.050Z,10.9
2019-01-06T23:51:31.360Z,10.8
2019-01-06T23:56:40.004Z,10.8
